Time;durP1;ratioP1;P1;durP2;ratioP2;P2;SDS_P1;SDS_P2;PMS_P1;PMS_P2;Temp;Humidity;BMP_temperature;BMP_pressure;BME280_temperature;BME280_humidity;BME280_pressure;Samples;Min_cycle;Max_cycle;Signal;HPM_P1;HPM_P2
2022/05/06 00:02:14;;;;;;;1.27;0.80;;;12.10;99.90;;;;;;5043220;28;20193;-45
2022/05/06 00:04:43;;;;;;;0.57;0.57;;;12.00;99.90;;;;;;5051986;28;20671;-45
2022/05/06 00:07:11;;;;;;;0.50;0.50;;;12.10;99.90;;;;;;5050963;28;20275;-45
2022/05/06 00:09:38;;;;;;;1.10;0.53;;;12.00;99.90;;;;;;5050643;28;20285;-45
2022/05/06 00:12:08;;;;;;;0.60;0.60;;;12.00;99.90;;;;;;5051361;28;20218;-45
2022/05/06 00:14:35;;;;;;;2.00;0.50;;;12.10;99.90;;;;;;5050909;28;20206;-45
2022/05/06 00:17:03;;;;;;;0.80;0.80;;;12.10;99.90;;;;;;5049992;28;20576;-46
2022/05/06 00:19:30;;;;;;;0.40;0.40;;;12.10;99.90;;;;;;5051727;28;20220;-45
2022/05/06 00:21:57;;;;;;;0.30;0.30;;;12.10;99.90;;;;;;5051448;28;20224;-45
2022/05/06 00:24:24;;;;;;;0.20;0.20;;;12.10;99.90;;;;;;5050727;28;20204;-45
2022/05/06 00:26:51;;;;;;;0.33;0.33;;;12.00;99.90;;;;;;5047602;28;20233;-45
2022/05/06 00:29:19;;;;;;;0.30;0.30;;;11.90;99.90;;;;;;5050795;28;20246;-45
2022/05/06 00:31:46;;;;;;;0.43;0.43;;;11.90;99.90;;;;;;5051223;28;20213;-45
2022/05/06 00:34:13;;;;;;;0.30;0.30;;;11.80;99.90;;;;;;5051468;28;20208;-45
2022/05/06 00:36:40;;;;;;;0.33;0.33;;;11.80;99.90;;;;;;5049766;28;20279;-45
2022/05/06 00:39:07;;;;;;;0.40;0.40;;;11.80;99.90;;;;;;5050398;28;20205;-45
2022/05/06 00:41:35;;;;;;;0.60;0.60;;;11.80;99.90;;;;;;5050398;28;20198;-45
2022/05/06 00:44:02;;;;;;;1.43;0.43;;;11.70;99.90;;;;;;5050481;28;20681;-45
2022/05/06 00:46:31;;;;;;;0.40;0.40;;;11.80;99.90;;;;;;5049797;28;20267;-45
2022/05/06 00:48:58;;;;;;;0.50;0.50;;;11.80;99.90;;;;;;5050204;28;20194;-45
2022/05/06 00:51:25;;;;;;;6.20;5.87;;;11.70;99.90;;;;;;5049987;28;20283;-45
2022/05/06 00:53:56;;;;;;;4.50;4.30;;;11.80;99.90;;;;;;5051433;28;20204;-45
2022/05/06 00:56:24;;;;;;;6.53;6.10;;;11.70;99.90;;;;;;5049475;28;20221;-45
2022/05/06 00:58:52;;;;;;;5.27;4.90;;;11.70;99.90;;;;;;5051270;28;20196;-45
2022/05/06 01:01:19;;;;;;;3.37;3.20;;;11.70;99.90;;;;;;5048954;28;20198;-45
2022/05/06 01:03:48;;;;;;;1.70;1.10;;;11.70;99.90;;;;;;5051049;28;20200;-45
2022/05/06 01:06:16;;;;;;;0.50;0.50;;;11.80;99.90;;;;;;5049707;28;20198;-46
2022/05/06 01:08:44;;;;;;;0.50;0.40;;;11.80;99.90;;;;;;5050421;28;20204;-45
2022/05/06 01:11:14;;;;;;;1.30;0.67;;;11.80;99.90;;;;;;5043056;28;20209;-44
2022/05/06 01:13:43;;;;;;;0.50;0.50;;;11.70;99.90;;;;;;5051457;28;20197;-45
2022/05/06 01:16:10;;;;;;;1.27;0.40;;;11.70;99.90;;;;;;5049102;28;20208;-45
2022/05/06 01:18:37;;;;;;;0.30;0.30;;;11.70;99.90;;;;;;5051251;28;20208;-45
2022/05/06 01:21:06;;;;;;;2.13;0.30;;;11.70;99.90;;;;;;5050040;28;20208;-46
2022/05/06 01:23:37;;;;;;;0.30;0.30;;;11.70;99.90;;;;;;5049990;28;20287;-45
2022/05/06 01:26:05;;;;;;;0.30;0.30;;;11.70;99.90;;;;;;5046781;28;20209;-45
2022/05/06 01:28:35;;;;;;;0.40;0.40;;;11.60;99.90;;;;;;5075545;22;20331;-53
2022/05/06 01:31:03;;;;;;;0.40;0.40;;;11.60;99.90;;;;;;5059741;28;20569;-53
2022/05/06 01:33:31;;;;;;;0.90;0.33;;;11.60;99.90;;;;;;5047979;28;20224;-53
2022/05/06 01:36:02;;;;;;;0.30;0.30;;;11.70;99.90;;;;;;5050464;28;20246;-53
2022/05/06 01:38:35;;;;;;;1.70;0.33;;;11.60;99.90;;;;;;5052513;28;20710;-52
2022/05/06 01:41:08;;;;;;;0.30;0.30;;;11.70;99.90;;;;;;5052814;28;20201;-53
2022/05/06 01:43:40;;;;;;;0.30;0.30;;;11.70;99.90;;;;;;5056785;28;20204;-53
2022/05/06 01:46:08;;;;;;;1.37;0.27;;;11.70;99.90;;;;;;5073872;28;20286;-54
2022/05/06 01:48:36;;;;;;;0.30;0.30;;;11.60;99.90;;;;;;5063103;28;20640;-54
2022/05/06 01:51:04;;;;;;;0.30;0.30;;;11.60;99.90;;;;;;5062232;28;20704;-52
2022/05/06 01:53:31;;;;;;;0.30;0.30;;;11.60;99.90;;;;;;5058568;28;20219;-52
2022/05/06 01:55:58;;;;;;;0.30;0.30;;;11.60;99.90;;;;;;5074084;28;20196;-52
2022/05/06 01:58:26;;;;;;;0.30;0.30;;;11.50;99.90;;;;;;5073570;28;20642;-52
2022/05/06 02:00:53;;;;;;;0.73;0.43;;;11.50;99.90;;;;;;5056586;28;20201;-52
2022/05/06 02:06:05;;;;;;;0.40;0.40;;;11.50;99.90;;;;;;5060646;28;20206;-52
2022/05/06 02:08:32;;;;;;;0.70;0.40;;;11.50;99.90;;;;;;5068382;28;20219;-52
2022/05/06 02:10:59;;;;;;;0.30;0.30;;;11.50;99.90;;;;;;5058185;28;20209;-52
2022/05/06 02:13:27;;;;;;;0.40;0.40;;;11.50;99.90;;;;;;5046138;28;20226;-52
2022/05/06 02:15:54;;;;;;;0.40;0.40;;;11.50;99.90;;;;;;5050512;28;20204;-52
2022/05/06 02:18:21;;;;;;;0.50;0.50;;;11.50;99.90;;;;;;5061734;28;20223;-52
2022/05/06 02:20:48;;;;;;;0.60;0.60;;;11.50;99.90;;;;;;5053534;28;20254;-52
2022/05/06 02:23:15;;;;;;;0.60;0.60;;;11.50;99.90;;;;;;5049793;28;20198;-52
2022/05/06 02:25:42;;;;;;;0.70;0.70;;;11.50;99.90;;;;;;5069402;28;20609;-52
2022/05/06 02:28:09;;;;;;;0.53;0.53;;;11.50;99.90;;;;;;5053331;28;20229;-52
2022/05/06 02:33:24;;;;;;;0.70;0.70;;;11.60;99.90;;;;;;5036677;28;20229;-52
2022/05/06 02:35:52;;;;;;;0.60;0.60;;;11.70;99.90;;;;;;5051245;28;20204;-52
2022/05/06 02:38:19;;;;;;;0.77;0.77;;;11.70;99.90;;;;;;5051482;28;20220;-52
2022/05/06 02:40:48;;;;;;;0.90;0.90;;;11.70;99.90;;;;;;5052505;28;20632;-52
2022/05/06 02:43:15;;;;;;;1.10;1.00;;;11.70;99.90;;;;;;5057472;28;20197;-52
2022/05/06 02:45:44;;;;;;;1.17;1.17;;;11.70;99.90;;;;;;5061141;28;20289;-51
2022/05/06 02:48:11;;;;;;;2.03;0.90;;;11.60;99.90;;;;;;5052935;28;20295;-52
2022/05/06 02:50:38;;;;;;;0.80;0.80;;;11.60;99.90;;;;;;5050654;28;20205;-52
2022/05/06 02:53:06;;;;;;;0.90;0.90;;;11.60;99.90;;;;;;5058143;28;20653;-52
2022/05/06 02:55:33;;;;;;;0.77;0.77;;;11.60;99.90;;;;;;5061518;28;20584;-52
2022/05/06 02:58:00;;;;;;;0.80;0.80;;;11.60;99.90;;;;;;5063128;28;20905;-52
2022/05/06 03:00:28;;;;;;;0.80;0.80;;;11.60;99.90;;;;;;5051556;28;20665;-52
2022/05/06 03:02:57;;;;;;;0.80;0.80;;;11.60;99.90;;;;;;5050819;28;20204;-52
2022/05/06 03:05:24;;;;;;;1.27;1.27;;;11.60;99.90;;;;;;5044291;28;20670;-52
2022/05/06 03:07:51;;;;;;;0.87;0.87;;;11.50;99.90;;;;;;5052182;28;20273;-54
2022/05/06 03:10:18;;;;;;;0.90;0.90;;;11.50;99.90;;;;;;5064160;28;20279;-52
2022/05/06 03:12:47;;;;;;;1.00;0.90;;;11.50;99.90;;;;;;5058653;28;20355;-55
2022/05/06 03:15:14;;;;;;;1.13;0.73;;;11.60;99.90;;;;;;5063277;28;20210;-54
2022/05/06 03:17:41;;;;;;;0.67;0.67;;;11.50;99.90;;;;;;5072006;28;20849;-52
2022/05/06 03:20:10;;;;;;;0.80;0.80;;;11.50;99.90;;;;;;5063459;28;20255;-54
2022/05/06 03:22:41;;;;;;;0.60;0.60;;;11.50;99.90;;;;;;5063525;28;20196;-54
2022/05/06 03:25:10;;;;;;;0.50;0.50;;;11.50;99.90;;;;;;5049480;28;20770;-52
2022/05/06 03:30:27;;;;;;;0.70;0.70;;;11.50;99.90;;;;;;5036421;28;20216;-52
2022/05/06 03:32:55;;;;;;;0.50;0.50;;;11.60;99.90;;;;;;5050841;28;20224;-53
2022/05/06 03:35:23;;;;;;;1.37;0.50;;;11.50;99.90;;;;;;5046289;28;20570;-52
2022/05/06 03:37:52;;;;;;;0.63;0.63;;;11.60;99.90;;;;;;5049632;28;20775;-52
2022/05/06 03:40:20;;;;;;;0.70;0.70;;;11.50;99.90;;;;;;5050496;28;20211;-53
2022/05/06 03:42:47;;;;;;;0.77;0.70;;;11.50;99.90;;;;;;5050905;28;20197;-52
2022/05/06 03:45:14;;;;;;;0.53;0.53;;;11.50;99.90;;;;;;5050205;28;20217;-52
2022/05/06 03:47:41;;;;;;;0.47;0.47;;;11.50;99.90;;;;;;5052018;28;20277;-52
2022/05/06 03:52:55;;;;;;;0.80;0.80;;;11.50;99.90;;;;;;5052778;28;20318;-53
2022/05/06 03:55:23;;;;;;;0.93;0.93;;;11.50;99.90;;;;;;5051871;28;20202;-52
2022/05/06 03:57:50;;;;;;;1.00;1.00;;;11.50;99.90;;;;;;5053131;28;20221;-52
2022/05/06 04:00:19;;;;;;;1.10;1.10;;;11.50;99.90;;;;;;5050969;28;20585;-53
2022/05/06 04:02:46;;;;;;;0.97;0.93;;;11.50;99.90;;;;;;5050241;28;20201;-53
2022/05/06 04:05:13;;;;;;;0.90;0.90;;;11.50;99.90;;;;;;5049574;28;20249;-53
2022/05/06 04:07:40;;;;;;;1.07;1.07;;;11.50;99.90;;;;;;5050111;28;20225;-53
2022/05/06 04:10:10;;;;;;;1.37;1.27;;;11.50;99.90;;;;;;5050088;28;20200;-52
2022/05/06 04:12:37;;;;;;;1.20;1.20;;;11.50;99.90;;;;;;5049878;28;20222;-52
2022/05/06 04:15:06;;;;;;;1.87;1.83;;;11.50;99.90;;;;;;5049376;28;20252;-52
2022/05/06 04:17:33;;;;;;;1.40;1.40;;;11.60;99.90;;;;;;5050284;28;20633;-52
2022/05/06 04:25:31;;;;;;;1.50;1.50;;;11.60;99.90;;;;;;5050147;28;20232;-52
2022/05/06 04:27:58;;;;;;;4.23;2.60;;;11.60;99.90;;;;;;5049894;28;20225;-52
2022/05/06 04:30:26;;;;;;;2.40;2.20;;;11.60;99.90;;;;;;5050322;28;20570;-52
2022/05/06 04:32:53;;;;;;;2.37;2.27;;;11.60;99.90;;;;;;5048624;28;20225;-52
2022/05/06 04:35:20;;;;;;;2.20;2.10;;;11.60;99.90;;;;;;5049162;28;20255;-52
2022/05/06 04:37:47;;;;;;;3.20;3.10;;;11.60;99.90;;;;;;5051912;28;20224;-53
2022/05/06 04:40:14;;;;;;;2.97;2.83;;;11.70;99.90;;;;;;5055285;28;20195;-53
2022/05/06 04:42:42;;;;;;;3.70;3.50;;;11.70;99.90;;;;;;5051458;28;20721;-53
2022/05/06 04:45:11;;;;;;;3.00;2.90;;;11.60;99.90;;;;;;5040048;28;20274;-53
2022/05/06 04:47:39;;;;;;;3.27;3.17;;;11.60;99.90;;;;;;5057874;28;20566;-54
2022/05/06 04:50:08;;;;;;;4.13;3.90;;;11.60;99.90;;;;;;5050435;28;20215;-53
2022/05/06 04:52:35;;;;;;;3.37;3.17;;;11.60;99.90;;;;;;5051124;28;20232;-52
2022/05/06 04:55:02;;;;;;;3.70;3.50;;;11.60;99.90;;;;;;5043341;28;20201;-54
2022/05/06 04:57:30;;;;;;;3.47;3.27;;;11.60;99.90;;;;;;5064176;28;20329;-52
2022/05/06 04:59:58;;;;;;;4.93;4.00;;;11.60;99.90;;;;;;5061986;28;20211;-51
2022/05/06 05:02:27;;;;;;;2.47;2.37;;;11.70;99.90;;;;;;5064600;28;20345;-52
2022/05/06 05:04:57;;;;;;;3.53;3.23;;;11.70;99.90;;;;;;5069873;28;20205;-51
2022/05/06 05:07:24;;;;;;;2.93;2.73;;;11.70;99.90;;;;;;5050794;28;20220;-52
2022/05/06 05:09:51;;;;;;;3.37;3.07;;;11.60;99.90;;;;;;5057025;28;20602;-52
2022/05/06 05:12:19;;;;;;;1.77;1.67;;;11.60;99.90;;;;;;5056589;28;20208;-51
2022/05/06 05:14:46;;;;;;;2.70;2.50;;;11.60;99.90;;;;;;5049165;28;20288;-52
2022/05/06 05:17:14;;;;;;;1.60;1.30;;;11.70;99.90;;;;;;5055904;28;20275;-54
2022/05/06 05:19:42;;;;;;;1.30;1.30;;;11.70;99.90;;;;;;5051182;28;20204;-52
2022/05/06 05:22:09;;;;;;;1.20;1.20;;;11.70;99.90;;;;;;5071730;28;20203;-52
2022/05/06 05:24:36;;;;;;;1.53;1.07;;;11.80;99.90;;;;;;5065934;28;20644;-52
2022/05/06 05:27:03;;;;;;;3.60;3.30;;;11.80;99.90;;;;;;5066165;28;20201;-52
2022/05/06 05:29:30;;;;;;;1.93;1.83;;;11.80;99.90;;;;;;5055496;28;20221;-52
2022/05/06 05:31:58;;;;;;;3.03;2.83;;;11.80;99.90;;;;;;5049608;28;20225;-51
2022/05/06 05:34:26;;;;;;;3.13;3.00;;;11.80;99.90;;;;;;5060297;28;20245;-52
2022/05/06 05:36:54;;;;;;;2.20;2.10;;;11.80;99.90;;;;;;5047498;28;20201;-52
2022/05/06 05:39:21;;;;;;;3.60;3.40;;;11.80;99.90;;;;;;5051121;28;20225;-52
2022/05/06 05:41:49;;;;;;;5.80;4.00;;;11.90;99.90;;;;;;5050706;28;20205;-53
2022/05/06 05:49:46;;;;;;;2.20;2.10;;;11.90;99.90;;;;;;5058552;28;20251;-54
2022/05/06 05:52:14;;;;;;;2.47;1.80;;;11.90;99.90;;;;;;5060762;28;20202;-53
2022/05/06 05:54:41;;;;;;;1.80;1.70;;;11.90;99.90;;;;;;5049792;28;20652;-53
2022/05/06 05:57:08;;;;;;;2.97;2.80;;;11.90;99.90;;;;;;5053212;28;20230;-52
2022/05/06 05:59:35;;;;;;;2.63;2.53;;;11.90;99.90;;;;;;5058508;28;20753;-52
2022/05/06 06:02:03;;;;;;;1.53;1.53;;;11.90;99.90;;;;;;5061214;28;20263;-53
2022/05/06 06:04:31;;;;;;;2.20;2.10;;;12.00;99.90;;;;;;5047622;28;20190;-54
2022/05/06 06:06:59;;;;;;;1.90;1.80;;;12.00;99.90;;;;;;5050779;28;20204;-53
2022/05/06 06:09:27;;;;;;;1.70;1.67;;;12.00;99.90;;;;;;5048620;28;20219;-53
2022/05/06 06:11:55;;;;;;;1.60;1.53;;;12.00;99.90;;;;;;5054962;28;20217;-53
2022/05/06 06:14:22;;;;;;;1.53;1.30;;;12.10;99.90;;;;;;5057247;28;20221;-53
2022/05/06 06:16:50;;;;;;;1.10;1.10;;;12.10;99.90;;;;;;5055710;28;20789;-53
2022/05/06 06:19:17;;;;;;;1.20;1.20;;;12.10;99.90;;;;;;5069131;28;20311;-53
2022/05/06 06:21:48;;;;;;;1.20;1.20;;;12.10;99.90;;;;;;5063107;28;20206;-52
2022/05/06 06:24:18;;;;;;;1.40;1.10;;;12.10;99.90;;;;;;5065985;28;20189;-52
2022/05/06 06:26:48;;;;;;;1.33;1.07;;;12.20;99.90;;;;;;5067628;28;20200;-52
2022/05/06 06:29:15;;;;;;;1.10;1.10;;;12.30;99.90;;;;;;5053186;28;20240;-52
2022/05/06 06:31:44;;;;;;;1.70;1.37;;;12.40;99.90;;;;;;5053173;28;20205;-52
2022/05/06 06:34:11;;;;;;;1.67;1.57;;;12.50;99.90;;;;;;5052607;28;20709;-51
2022/05/06 06:36:41;;;;;;;3.33;1.83;;;12.60;99.90;;;;;;5051609;28;20251;-52
2022/05/06 06:39:08;;;;;;;2.83;2.63;;;12.80;99.90;;;;;;5056010;28;20295;-52
2022/05/06 06:41:37;;;;;;;2.20;2.00;;;12.90;99.90;;;;;;5050040;28;20215;-53
2022/05/06 06:44:05;;;;;;;1.83;1.80;;;12.90;99.90;;;;;;5052075;28;20258;-53
2022/05/06 06:46:33;;;;;;;1.40;1.40;;;12.80;99.90;;;;;;5054028;28;20283;-52
2022/05/06 06:49:01;;;;;;;1.73;1.67;;;12.90;99.90;;;;;;5052737;28;20595;-52
2022/05/06 06:51:28;;;;;;;1.83;1.80;;;13.00;99.90;;;;;;5057069;28;20207;-52
2022/05/06 06:53:55;;;;;;;2.70;2.60;;;13.00;99.90;;;;;;5050290;28;20691;-51
2022/05/06 06:56:23;;;;;;;3.23;3.13;;;13.00;99.90;;;;;;5050849;28;20198;-52
2022/05/06 06:58:52;;;;;;;3.07;2.97;;;13.10;99.90;;;;;;5053229;28;20219;-52
2022/05/06 07:01:20;;;;;;;2.73;2.53;;;13.20;99.90;;;;;;5051853;28;20626;-52
2022/05/06 07:03:47;;;;;;;2.67;2.43;;;13.20;99.90;;;;;;5052258;28;20640;-52
2022/05/06 07:14:30;;;;;;;3.47;3.27;;;13.10;99.90;;;;;;5046584;28;20229;-52
2022/05/06 07:16:58;;;;;;;4.00;3.70;;;13.10;99.90;;;;;;5052604;28;20201;-52
2022/05/06 07:19:25;;;;;;;3.70;3.50;;;13.30;99.90;;;;;;5052304;28;20226;-52
2022/05/06 07:21:51;;;;;;;3.10;3.00;;;13.50;99.90;;;;;;5051804;28;20252;-53
2022/05/06 07:24:19;;;;;;;2.67;2.57;;;13.50;99.90;;;;;;5052506;28;20198;-53
2022/05/06 07:26:48;;;;;;;2.70;2.60;;;13.50;99.90;;;;;;5052597;28;20202;-53
2022/05/06 07:29:15;;;;;;;2.50;2.40;;;13.70;99.90;;;;;;5075316;22;20237;-46
2022/05/06 07:31:44;;;;;;;2.63;2.53;;;13.90;99.90;;;;;;5071140;28;20217;-47
2022/05/06 07:34:11;;;;;;;2.20;2.20;;;13.90;99.90;;;;;;5065073;28;20458;-46
2022/05/06 07:36:42;;;;;;;2.33;2.33;;;14.10;99.90;;;;;;5090039;28;20674;-47
2022/05/06 07:39:10;;;;;;;2.50;2.40;;;14.20;99.90;;;;;;5071473;28;20219;-47
2022/05/06 07:41:41;;;;;;;2.43;2.33;;;14.30;99.90;;;;;;5092354;28;20283;-47
2022/05/06 07:44:08;;;;;;;3.93;2.40;;;14.50;99.90;;;;;;5090894;28;20260;-47
2022/05/06 07:46:36;;;;;;;2.07;2.07;;;14.60;99.90;;;;;;5082294;28;20258;-47
2022/05/06 07:49:05;;;;;;;1.90;1.80;;;14.70;99.90;;;;;;5082730;28;20755;-47
2022/05/06 07:51:32;;;;;;;2.03;2.00;;;14.60;99.90;;;;;;5090026;28;20767;-46
2022/05/06 07:53:59;;;;;;;1.70;1.60;;;14.60;99.90;;;;;;5090286;28;20212;-47
2022/05/06 07:56:28;;;;;;;2.37;2.17;;;14.80;99.90;;;;;;5092336;28;20204;-47
2022/05/06 07:58:56;;;;;;;1.80;1.70;;;15.00;99.90;;;;;;5092503;28;20228;-47
2022/05/06 08:04:32;;;;;;;2.10;2.00;;;15.10;99.90;;;;;;5092016;28;20549;-47
2022/05/06 08:06:56;;;;;;;1.70;1.67;;;15.00;99.90;;;;;;5090110;28;20204;-46
2022/05/06 08:09:23;;;;;;;2.17;2.07;;;15.20;99.90;;;;;;5088263;28;20201;-46
2022/05/06 08:11:50;;;;;;;1.60;1.60;;;15.20;99.90;;;;;;5091948;28;20620;-47
2022/05/06 08:14:18;;;;;;;1.60;1.60;;;15.40;99.90;;;;;;5087434;28;20212;-47
2022/05/06 08:16:48;;;;;;;1.70;1.70;;;15.40;99.90;;;;;;5091899;28;20196;-47
2022/05/06 08:19:17;;;;;;;2.57;2.47;;;15.50;99.90;;;;;;5091791;28;20250;-47
2022/05/06 08:21:44;;;;;;;2.57;2.37;;;15.50;99.90;;;;;;5091762;28;20739;-47
2022/05/06 08:24:11;;;;;;;1.70;1.70;;;15.50;99.90;;;;;;5083548;28;20246;-46
2022/05/06 08:26:42;;;;;;;2.43;2.33;;;15.50;99.90;;;;;;5087646;28;20208;-47
2022/05/06 08:29:09;;;;;;;2.00;2.00;;;15.50;99.90;;;;;;5091720;28;20193;-47
2022/05/06 08:31:37;;;;;;;1.93;1.90;;;15.40;99.90;;;;;;5091584;28;20212;-46
2022/05/06 08:34:07;;;;;;;1.50;1.50;;;15.30;99.90;;;;;;5089734;28;20225;-46
2022/05/06 08:36:36;;;;;;;1.93;1.90;;;15.20;99.90;;;;;;5090060;28;20204;-46
2022/05/06 08:39:04;;;;;;;1.63;1.63;;;15.20;99.90;;;;;;5091833;28;20273;-46
2022/05/06 08:41:31;;;;;;;1.90;1.90;;;15.20;99.90;;;;;;5091361;28;20224;-46
2022/05/06 08:50:50;;;;;;;2.30;2.07;;;15.20;99.90;;;;;;5089494;28;20192;-46
2022/05/06 08:52:22;;;;;;;1.67;1.40;;;14.50;99.90;;;;;;5086838;28;20276;-46
2022/05/06 08:54:51;;;;;;;1.83;1.67;;;14.30;99.90;;;;;;5080845;28;20216;-46
2022/05/06 08:57:18;;;;;;;1.90;1.80;;;14.10;99.90;;;;;;5095920;28;20197;-46
2022/05/06 08:59:51;;;;;;;2.25;2.15;;;13.90;99.90;;;;;;5086305;28;20456;-46
2022/05/06 09:02:18;;;;;;;2.70;2.50;;;13.90;99.90;;;;;;5084717;28;20213;-46
2022/05/06 09:04:45;;;;;;;2.57;2.47;;;13.80;99.90;;;;;;5095376;28;20199;-46
2022/05/06 09:07:19;;;;;;;1.77;1.77;;;13.90;99.90;;;;;;5093051;28;20751;-45
2022/05/06 09:10:12;;;;;;;1.90;1.83;;;13.80;99.90;;;;;;5085984;28;20306;-46
2022/05/06 09:12:44;;;;;;;2.30;1.90;;;13.80;99.90;;;;;;5083097;28;20203;-46
2022/05/06 09:17:57;;;;;;;1.50;1.47;;;13.80;99.90;;;;;;5089725;28;20692;-46
2022/05/06 09:20:25;;;;;;;2.80;2.40;;;13.70;99.90;;;;;;5092240;28;20299;-46
2022/05/06 09:22:52;;;;;;;2.20;2.10;;;13.60;99.90;;;;;;5094973;28;20206;-46
2022/05/06 09:25:40;;;;;;;1.43;1.43;;;13.60;99.90;;;;;;5095217;28;20664;-49
2022/05/06 09:28:11;;;;;;;1.93;1.83;;;13.50;99.90;;;;;;5094948;28;20204;-46
2022/05/06 09:30:38;;;;;;;2.17;2.07;;;13.40;99.90;;;;;;5082175;28;20235;-46
2022/05/06 09:33:05;;;;;;;2.30;2.20;;;13.50;99.90;;;;;;5093994;28;20670;-46
2022/05/06 09:35:32;;;;;;;2.33;2.23;;;13.40;99.90;;;;;;5094887;28;20744;-46
2022/05/06 09:38:03;;;;;;;2.57;2.40;;;13.50;99.90;;;;;;5090091;28;20286;-46
2022/05/06 09:40:31;;;;;;;2.07;1.60;;;13.70;99.90;;;;;;5088998;28;20588;-46
2022/05/06 09:43:01;;;;;;;1.73;1.73;;;13.70;99.90;;;;;;5094367;28;20233;-46
2022/05/06 09:45:33;;;;;;;0.90;0.90;;;13.80;99.90;;;;;;5094768;28;20242;-46
2022/05/06 09:48:01;;;;;;;1.00;1.00;;;13.70;99.90;;;;;;5094645;28;20205;-47
2022/05/06 09:50:33;;;;;;;1.97;1.77;;;13.80;99.90;;;;;;5086207;28;20223;-47
2022/05/06 09:53:01;;;;;;;1.60;1.60;;;13.90;99.90;;;;;;5083343;28;20199;-46
2022/05/06 09:55:29;;;;;;;1.50;1.40;;;14.10;99.90;;;;;;5088344;28;20257;-46
2022/05/06 09:57:59;;;;;;;1.50;1.50;;;14.20;99.90;;;;;;5087169;28;20197;-45
2022/05/06 10:00:28;;;;;;;1.60;1.50;;;14.40;99.90;;;;;;5094162;28;20240;-46
2022/05/06 10:02:56;;;;;;;1.23;1.23;;;14.40;99.90;;;;;;5085553;28;20260;-46
2022/05/06 10:05:24;;;;;;;1.40;1.40;;;14.40;99.90;;;;;;5094173;28;20193;-46
2022/05/06 10:07:55;;;;;;;1.63;1.63;;;14.40;99.90;;;;;;5092334;28;20684;-46
2022/05/06 10:10:26;;;;;;;1.80;1.70;;;14.40;99.90;;;;;;5084589;28;20268;-46
2022/05/06 10:12:57;;;;;;;1.73;1.63;;;14.40;99.90;;;;;;5087079;28;20563;-46
2022/05/06 10:15:28;;;;;;;1.77;1.67;;;14.50;99.90;;;;;;5093832;28;20635;-46
2022/05/06 10:17:56;;;;;;;1.83;1.80;;;14.60;99.90;;;;;;5080381;28;20197;-46
2022/05/06 10:21:00;;;;;;;1.73;1.73;;;14.90;99.90;;;;;;5079634;28;20232;-46
2022/05/06 10:23:47;;;;;;;1.57;1.57;;;15.00;99.90;;;;;;5085451;28;20241;-46
2022/05/06 10:26:47;;;;;;;3.07;1.90;;;15.10;99.90;;;;;;5090319;28;20200;-46
2022/05/06 10:32:55;;;;;;;1.77;1.77;;;14.90;99.90;;;;;;5076574;28;20236;-46
2022/05/06 10:35:39;;;;;;;2.00;1.90;;;14.90;99.90;;;;;;5077449;28;20702;-46
2022/05/06 10:38:18;;;;;;;1.53;1.53;;;14.90;99.90;;;;;;5082068;28;20249;-46
2022/05/06 10:40:58;;;;;;;2.13;2.03;;;15.00;99.90;;;;;;5090726;28;20222;-46
2022/05/06 10:43:52;;;;;;;1.73;1.73;;;15.00;99.90;;;;;;5078708;28;20200;-46
2022/05/06 10:46:37;;;;;;;2.10;2.10;;;15.10;99.90;;;;;;5080841;28;20192;-47
2022/05/06 10:49:47;;;;;;;2.20;2.10;;;15.20;99.90;;;;;;5091495;28;20192;-46
2022/05/06 10:52:40;;;;;;;1.77;1.77;;;15.40;99.90;;;;;;5073596;28;20283;-46
2022/05/06 10:55:10;;;;;;;1.50;1.50;;;15.70;99.90;;;;;;5085268;28;20254;-46
2022/05/06 10:57:50;;;;;;;2.33;2.23;;;15.90;99.90;;;;;;5072320;28;20201;-46
2022/05/06 11:00:18;;;;;;;1.40;1.40;;;16.10;99.90;;;;;;5075341;28;20216;-46
2022/05/06 11:02:45;;;;;;;2.53;2.43;;;16.20;99.90;;;;;;5074399;28;20201;-46
2022/05/06 11:05:14;;;;;;;1.70;1.70;;;16.20;99.90;;;;;;5073066;28;20193;-46
2022/05/06 11:07:44;;;;;;;1.97;1.87;;;16.10;99.90;;;;;;5072256;28;20197;-46
2022/05/06 11:10:13;;;;;;;2.40;2.30;;;16.30;99.90;;;;;;5086910;28;20762;-47
2022/05/06 11:12:42;;;;;;;2.43;2.33;;;16.40;99.90;;;;;;5078846;28;20200;-47
2022/05/06 11:15:10;;;;;;;2.27;2.17;;;16.40;99.90;;;;;;5083216;28;20213;-47
2022/05/06 11:17:38;;;;;;;2.50;2.40;;;16.40;99.90;;;;;;5073420;28;20678;-47
2022/05/06 11:20:16;;;;;;;3.70;3.50;;;16.50;99.90;;;;;;5092351;28;20224;-47
2022/05/06 11:22:55;;;;;;;3.03;2.93;;;16.90;99.90;;;;;;5084820;28;20290;-46
2022/05/06 11:25:23;;;;;;;4.87;4.47;;;17.00;99.90;;;;;;5086323;28;20254;-47
2022/05/06 11:27:51;;;;;;;5.67;5.27;;;17.00;99.90;;;;;;5092844;28;20196;-47
2022/05/06 11:30:20;;;;;;;6.53;5.93;;;16.80;99.90;;;;;;5088497;28;20270;-47
2022/05/06 11:32:49;;;;;;;6.83;6.33;;;16.70;99.90;;;;;;5087640;28;20666;-46
2022/05/06 11:35:20;;;;;;;7.20;6.63;;;16.60;99.90;;;;;;5077759;28;20790;-47
2022/05/06 11:37:48;;;;;;;6.50;6.10;;;16.50;99.90;;;;;;5072506;28;20283;-47
2022/05/06 11:40:34;;;;;;;6.10;5.70;;;16.30;99.90;;;;;;5076173;28;20266;-47
2022/05/06 11:43:09;;;;;;;7.53;7.03;;;16.30;99.90;;;;;;5092163;28;20202;-47
2022/05/06 11:48:22;;;;;;;8.80;8.10;;;15.90;99.90;;;;;;5088651;28;20204;-47
2022/05/06 11:50:57;;;;;;;10.33;8.90;;;15.60;99.90;;;;;;5073599;28;20308;-46
2022/05/06 11:53:27;;;;;;;9.80;9.00;;;15.30;99.90;;;;;;5075605;28;20296;-46
2022/05/06 11:55:56;;;;;;;15.00;11.70;;;15.40;99.90;;;;;;5071359;28;20223;-47
2022/05/06 11:58:26;;;;;;;12.83;11.63;;;15.50;99.90;;;;;;5071589;28;20615;-47
2022/05/06 12:00:54;;;;;;;12.13;11.10;;;15.70;99.90;;;;;;5080576;28;20225;-46
2022/05/06 12:03:22;;;;;;;12.23;11.13;;;15.90;99.90;;;;;;5076968;28;20246;-46
2022/05/06 12:06:04;;;;;;;11.73;10.83;;;16.30;99.90;;;;;;5090766;28;20196;-46
2022/05/06 12:08:33;;;;;;;12.33;11.23;;;16.60;99.90;;;;;;5089474;28;20200;-47
2022/05/06 12:11:02;;;;;;;10.63;9.73;;;16.80;99.90;;;;;;5075161;28;20300;-46
2022/05/06 12:13:40;;;;;;;13.37;12.07;;;16.80;99.90;;;;;;5087077;28;20193;-47
2022/05/06 12:16:10;;;;;;;14.07;12.77;;;16.70;99.90;;;;;;5071259;28;20208;-47
2022/05/06 12:18:38;;;;;;;13.13;12.03;;;16.50;99.90;;;;;;5070871;28;20212;-47
2022/05/06 12:21:25;;;;;;;17.10;15.40;;;16.40;99.90;;;;;;5082210;28;20846;-46
2022/05/06 12:23:54;;;;;;;15.37;13.97;;;16.50;99.90;;;;;;5090735;28;20245;-46
2022/05/06 12:26:30;;;;;;;15.47;14.13;;;16.60;99.90;;;;;;5089915;28;20722;-46
2022/05/06 12:28:57;;;;;;;17.37;15.70;;;16.50;99.90;;;;;;5083858;28;20204;-46
2022/05/06 12:31:29;;;;;;;17.53;15.83;;;16.40;99.90;;;;;;5084583;28;20223;-46
2022/05/06 12:34:08;;;;;;;19.40;17.40;;;16.30;99.90;;;;;;5086760;28;20284;-46
2022/05/06 12:36:36;;;;;;;22.50;20.20;;;16.40;99.90;;;;;;5071680;28;20259;-46
2022/05/06 12:39:20;;;;;;;22.20;19.60;;;16.30;99.90;;;;;;5075460;28;20207;-46
2022/05/06 12:41:51;;;;;;;23.10;20.83;;;16.30;99.90;;;;;;5082721;28;20207;-46
2022/05/06 12:44:21;;;;;;;24.80;22.40;;;16.40;99.90;;;;;;5078869;28;20552;-46
2022/05/06 12:46:49;;;;;;;26.17;22.30;;;16.20;99.90;;;;;;5071535;28;20197;-46
2022/05/06 12:52:04;;;;;;;25.60;22.83;;;16.10;99.90;;;;;;5091032;28;20733;-46
2022/05/06 12:54:31;;;;;;;26.50;23.73;;;16.00;99.90;;;;;;5088487;28;20553;-46
2022/05/06 12:57:00;;;;;;;26.33;23.53;;;15.90;99.90;;;;;;5090765;28;20266;-46
2022/05/06 12:59:27;;;;;;;33.13;30.00;;;15.70;99.90;;;;;;5075432;28;20541;-47
2022/05/06 13:01:55;;;;;;;29.73;26.63;;;15.60;99.90;;;;;;5088262;28;20257;-47
2022/05/06 13:04:22;;;;;;;29.20;26.27;;;15.40;99.90;;;;;;5091408;28;20810;-47
2022/05/06 13:06:49;;;;;;;27.87;24.40;;;15.40;99.90;;;;;;5075785;28;20193;-47
2022/05/06 13:09:16;;;;;;;27.20;24.50;;;15.50;99.90;;;;;;5070568;28;20732;-47
2022/05/06 13:11:43;;;;;;;25.10;22.40;;;15.50;99.90;;;;;;5078802;28;20263;-46
2022/05/06 13:14:12;;;;;;;24.47;21.97;;;15.50;99.90;;;;;;5081091;28;20249;-46
2022/05/06 13:16:40;;;;;;;25.97;23.33;;;15.50;99.90;;;;;;5075844;28;20224;-46
2022/05/06 13:19:09;;;;;;;24.53;22.03;;;15.70;99.90;;;;;;5091329;28;20257;-47
2022/05/06 13:21:37;;;;;;;27.73;21.70;;;15.90;99.90;;;;;;5076370;28;20213;-46
2022/05/06 13:24:04;;;;;;;23.90;21.50;;;15.90;99.90;;;;;;5075863;28;20189;-46
2022/05/06 13:26:31;;;;;;;23.87;21.33;;;15.80;99.90;;;;;;5070754;28;20189;-46
2022/05/06 13:28:58;;;;;;;24.10;21.57;;;15.80;99.90;;;;;;5070657;28;20607;-46
2022/05/06 13:31:26;;;;;;;26.70;22.77;;;15.70;99.90;;;;;;5074486;28;20850;-47
2022/05/06 13:33:53;;;;;;;24.77;22.27;;;15.60;99.90;;;;;;5074557;28;20875;-47
2022/05/06 13:36:21;;;;;;;25.03;22.47;;;15.60;99.90;;;;;;5081254;28;20617;-46
2022/05/06 13:38:48;;;;;;;25.07;22.43;;;15.50;99.90;;;;;;5069373;28;20278;-47
2022/05/06 13:41:16;;;;;;;22.63;20.33;;;15.50;99.90;;;;;;5078875;28;20213;-47
2022/05/06 13:43:43;;;;;;;26.43;22.20;;;15.50;99.90;;;;;;5074063;28;20241;-46
2022/05/06 13:46:10;;;;;;;25.80;23.10;;;15.40;99.90;;;;;;5073895;28;20247;-46